Time;durP1;ratioP1;P1;durP2;ratioP2;P2;SDS_P1;SDS_P2;PMS_P1;PMS_P2;Temp;Humidity;BMP_temperature;BMP_pressure;BME280_temperature;BME280_humidity;BME280_pressure;Samples;Min_cycle;Max_cycle;Signal;HPM_P1;HPM_P2
2023/03/14 00:00:22;;;;;;;4.22;1.20;;;16.80;94.00;;;;;;5032021;28;20036;-74
2023/03/14 00:02:52;;;;;;;6.10;1.48;;;16.80;93.90;;;;;;5031902;28;20051;-74
2023/03/14 00:05:18;;;;;;;5.68;1.58;;;16.80;93.90;;;;;;5032373;28;20029;-74
2023/03/14 00:07:44;;;;;;;6.70;1.33;;;16.70;94.00;;;;;;5014306;28;20396;-74
2023/03/14 00:10:13;;;;;;;3.38;1.00;;;16.70;93.90;;;;;;5032063;28;20036;-74
2023/03/14 00:12:39;;;;;;;4.68;1.20;;;16.80;93.80;;;;;;5033841;28;20105;-74
2023/03/14 00:15:06;;;;;;;4.57;1.23;;;16.70;93.80;;;;;;5035855;28;20533;-74
2023/03/14 00:17:33;;;;;;;7.57;1.90;;;16.70;93.80;;;;;;5035684;28;20013;-74
2023/03/14 00:20:04;;;;;;;3.65;1.15;;;16.70;93.70;;;;;;5035668;28;20021;-74
2023/03/14 00:22:31;;;;;;;5.85;1.27;;;16.70;93.80;;;;;;5035760;28;20021;-74
2023/03/14 00:24:56;;;;;;;3.92;1.00;;;16.70;93.70;;;;;;5035688;28;20613;-74
2023/03/14 00:27:22;;;;;;;5.05;1.73;;;16.60;93.40;;;;;;5035588;28;20033;-74
2023/03/14 00:29:47;;;;;;;3.53;0.70;;;16.60;93.50;;;;;;5035708;28;20033;-74
2023/03/14 00:32:13;;;;;;;3.95;0.98;;;16.60;93.20;;;;;;5035313;28;20097;-74
2023/03/14 00:34:39;;;;;;;4.28;0.88;;;16.50;93.50;;;;;;5035252;28;20037;-74
2023/03/14 00:37:05;;;;;;;4.45;1.23;;;16.50;93.70;;;;;;5035372;28;20487;-74
2023/03/14 00:39:31;;;;;;;3.38;0.77;;;16.50;93.70;;;;;;5035433;28;20068;-74
2023/03/14 00:41:56;;;;;;;3.42;1.00;;;16.50;93.80;;;;;;5035467;28;20026;-74
2023/03/14 00:44:22;;;;;;;2.58;0.90;;;16.50;93.70;;;;;;5035223;28;20111;-74
2023/03/14 00:46:47;;;;;;;4.47;1.10;;;16.40;93.70;;;;;;5034898;28;20056;-74
2023/03/14 00:49:13;;;;;;;5.00;1.23;;;16.40;93.60;;;;;;5035232;28;20025;-74
2023/03/14 00:51:38;;;;;;;5.80;0.63;;;16.40;93.70;;;;;;5035157;28;20122;-74
2023/03/14 00:54:04;;;;;;;4.28;0.77;;;16.40;93.70;;;;;;5035135;28;20028;-74
2023/03/14 00:56:30;;;;;;;5.57;1.52;;;16.40;93.70;;;;;;5034972;28;20041;-74
2023/03/14 00:58:56;;;;;;;3.97;0.90;;;16.40;93.70;;;;;;5034839;28;20049;-74
2023/03/14 01:01:22;;;;;;;3.50;1.08;;;16.40;93.60;;;;;;5017091;28;20025;-74
2023/03/14 01:03:51;;;;;;;5.93;1.48;;;16.40;93.70;;;;;;5034976;28;20378;-74
2023/03/14 01:06:20;;;;;;;3.33;0.90;;;16.40;93.60;;;;;;5034982;28;20029;-74
2023/03/14 01:08:47;;;;;;;3.65;0.93;;;16.40;93.70;;;;;;5016911;28;20483;-74
2023/03/14 01:11:16;;;;;;;5.88;1.30;;;16.40;93.70;;;;;;5034870;28;20029;-74
2023/03/14 01:13:42;;;;;;;5.18;1.30;;;16.30;93.60;;;;;;5034705;28;20522;-74
2023/03/14 01:16:10;;;;;;;4.18;1.20;;;16.30;93.40;;;;;;5034244;28;20060;-74
2023/03/14 01:18:38;;;;;;;5.30;1.05;;;16.30;93.60;;;;;;5034758;28;20448;-74
2023/03/14 01:21:10;;;;;;;4.00;1.13;;;16.20;93.50;;;;;;5035051;28;20521;-74
2023/03/14 01:23:35;;;;;;;3.83;1.15;;;16.20;93.60;;;;;;5034256;28;20014;-74
2023/03/14 01:26:01;;;;;;;3.17;1.17;;;16.30;93.60;;;;;;5034588;28;20026;-74
2023/03/14 01:28:26;;;;;;;5.90;1.10;;;16.20;93.60;;;;;;5034467;28;20426;-74
2023/03/14 01:30:52;;;;;;;5.32;1.25;;;16.20;93.60;;;;;;5034256;28;20048;-74
2023/03/14 01:33:17;;;;;;;7.22;1.70;;;16.20;93.60;;;;;;5034549;28;20517;-74
2023/03/14 01:35:43;;;;;;;3.75;1.02;;;16.20;93.60;;;;;;5034336;28;20083;-74
2023/03/14 01:38:08;;;;;;;5.38;1.55;;;16.10;93.60;;;;;;5034395;28;20446;-74
2023/03/14 01:40:40;;;;;;;6.72;2.03;;;16.20;93.60;;;;;;5034142;28;20079;-74
2023/03/14 01:43:14;;;;;;;8.55;1.65;;;16.10;93.50;;;;;;5034377;28;20022;-74
2023/03/14 01:46:05;;;;;;;4.38;1.10;;;16.20;93.60;;;;;;5033764;28;20037;-74
2023/03/14 01:49:06;;;;;;;4.93;1.00;;;16.20;93.60;;;;;;5034641;28;20021;-74
2023/03/14 01:51:46;;;;;;;5.78;1.60;;;16.10;93.60;;;;;;5033935;28;20060;-74
2023/03/14 01:54:18;;;;;;;3.75;1.00;;;16.00;93.50;;;;;;5033871;28;20390;-74
2023/03/14 01:56:50;;;;;;;5.13;1.50;;;16.00;93.70;;;;;;5016268;28;20040;-74
2023/03/14 01:59:16;;;;;;;4.47;1.25;;;15.90;93.70;;;;;;5033737;28;20462;-74
2023/03/14 02:01:46;;;;;;;4.70;1.30;;;15.90;93.70;;;;;;5033914;28;20029;-74
2023/03/14 02:04:12;;;;;;;6.28;1.70;;;15.90;93.80;;;;;;5033829;28;20123;-74
2023/03/14 02:06:49;;;;;;;6.53;1.30;;;15.90;93.80;;;;;;5033708;28;20029;-74
2023/03/14 02:09:15;;;;;;;7.90;1.77;;;15.90;93.70;;;;;;5016059;28;20082;-74
2023/03/14 02:11:41;;;;;;;7.22;1.63;;;15.80;93.70;;;;;;5033596;28;20017;-74
2023/03/14 02:14:09;;;;;;;4.18;1.25;;;15.80;93.80;;;;;;5033478;28;20021;-74
2023/03/14 02:16:35;;;;;;;5.22;1.20;;;15.70;93.80;;;;;;5015669;28;20041;-74
2023/03/14 02:19:02;;;;;;;5.00;1.00;;;15.80;93.90;;;;;;5033488;28;20104;-74
2023/03/14 02:21:31;;;;;;;8.18;1.58;;;15.80;94.00;;;;;;5033544;28;20053;-74
2023/03/14 02:24:16;;;;;;;6.40;1.52;;;15.80;93.90;;;;;;5033425;28;20434;-74
2023/03/14 02:27:15;;;;;;;4.80;0.98;;;15.80;93.80;;;;;;5015537;28;20017;-74
2023/03/14 02:29:57;;;;;;;3.95;1.00;;;15.80;93.90;;;;;;5033486;28;20071;-74
2023/03/14 02:32:24;;;;;;;5.20;0.90;;;15.80;94.00;;;;;;5033187;28;20509;-74
2023/03/14 02:34:54;;;;;;;4.30;0.90;;;15.70;94.00;;;;;;5032223;28;20112;-74
2023/03/14 02:37:23;;;;;;;4.95;0.90;;;15.80;94.00;;;;;;5033203;28;20112;-74
2023/03/14 02:39:49;;;;;;;4.50;1.23;;;15.70;93.90;;;;;;5033392;28;20017;-74
2023/03/14 02:42:15;;;;;;;3.83;0.95;;;15.70;94.00;;;;;;5032938;28;20017;-74
2023/03/14 02:44:54;;;;;;;3.55;0.93;;;15.70;94.00;;;;;;5015564;28;20538;-74
2023/03/14 02:47:28;;;;;;;3.05;0.57;;;15.70;94.00;;;;;;5032687;28;20375;-74
2023/03/14 02:50:07;;;;;;;4.97;0.88;;;15.70;94.00;;;;;;5033168;28;20112;-74
2023/03/14 02:52:32;;;;;;;2.72;0.63;;;15.60;94.00;;;;;;5032963;28;20076;-74
2023/03/14 02:54:58;;;;;;;3.55;0.63;;;15.60;93.90;;;;;;5032945;28;20029;-74
2023/03/14 02:57:23;;;;;;;5.13;0.90;;;15.60;94.10;;;;;;5026309;28;20102;-74
2023/03/14 02:59:49;;;;;;;6.18;0.80;;;15.50;94.00;;;;;;5051558;28;20029;-74
2023/03/14 03:02:14;;;;;;;5.75;0.98;;;15.60;94.10;;;;;;5052050;28;20051;-74
2023/03/14 03:04:40;;;;;;;3.72;1.13;;;15.50;94.10;;;;;;5052552;28;20048;-74
2023/03/14 03:07:06;;;;;;;4.55;0.90;;;15.50;94.10;;;;;;5052433;28;20474;-74
2023/03/14 03:09:31;;;;;;;3.72;0.80;;;15.50;94.20;;;;;;5034752;28;20354;-74
2023/03/14 03:11:57;;;;;;;5.32;0.90;;;15.50;94.20;;;;;;5051918;28;20029;-74
2023/03/14 03:14:22;;;;;;;5.10;1.13;;;15.40;94.30;;;;;;5052416;28;20025;-74
2023/03/14 03:16:48;;;;;;;3.40;0.80;;;15.50;94.40;;;;;;5052583;28;20036;-74
2023/03/14 03:19:14;;;;;;;4.55;1.10;;;15.40;94.40;;;;;;5052820;28;20090;-74
2023/03/14 03:21:42;;;;;;;2.55;0.82;;;15.50;94.40;;;;;;5052299;28;20517;-74
2023/03/14 03:24:08;;;;;;;5.15;0.73;;;15.50;94.40;;;;;;5052524;28;20066;-74
2023/03/14 03:26:37;;;;;;;6.53;1.33;;;15.40;94.40;;;;;;5051972;28;20029;-74
2023/03/14 03:29:03;;;;;;;2.55;0.68;;;15.40;94.50;;;;;;5052458;28;20033;-74
2023/03/14 03:31:28;;;;;;;7.78;1.38;;;15.50;94.50;;;;;;5052235;28;20107;-74
2023/03/14 03:33:54;;;;;;;4.40;0.90;;;15.40;94.50;;;;;;5052349;28;20104;-74
2023/03/14 03:36:24;;;;;;;4.50;0.90;;;15.40;94.50;;;;;;5052087;28;20048;-74
2023/03/14 03:38:50;;;;;;;5.53;1.00;;;15.40;94.50;;;;;;5052446;28;20064;-74
2023/03/14 03:41:16;;;;;;;5.30;0.93;;;15.40;94.50;;;;;;5051902;28;20431;-73
2023/03/14 03:43:41;;;;;;;4.25;1.10;;;15.40;94.60;;;;;;5052298;28;20025;-74
2023/03/14 03:46:07;;;;;;;3.33;1.10;;;15.40;94.60;;;;;;5053471;28;20025;-74
2023/03/14 03:48:34;;;;;;;5.22;0.93;;;15.40;94.70;;;;;;5056197;28;20100;-74
2023/03/14 03:51:00;;;;;;;6.03;1.00;;;15.40;94.70;;;;;;5056272;28;20029;-74
2023/03/14 03:53:26;;;;;;;3.53;1.02;;;15.40;94.80;;;;;;5038129;28;20028;-74
2023/03/14 03:55:51;;;;;;;3.25;0.80;;;15.30;94.80;;;;;;5055965;28;20029;-74
2023/03/14 03:58:17;;;;;;;3.80;0.95;;;15.30;95.00;;;;;;5056029;28;20074;-73
2023/03/14 04:00:42;;;;;;;4.45;0.88;;;15.30;94.80;;;;;;5056156;28;20103;-74
2023/03/14 04:03:08;;;;;;;5.85;1.45;;;15.30;94.80;;;;;;5038083;28;20074;-74
2023/03/14 04:05:34;;;;;;;4.07;1.00;;;15.30;94.80;;;;;;5056165;28;20067;-74
2023/03/14 04:08:00;;;;;;;4.35;0.90;;;15.30;94.80;;;;;;5055825;28;20523;-74
2023/03/14 04:10:26;;;;;;;3.70;0.73;;;15.30;94.90;;;;;;5055426;28;20482;-74
2023/03/14 04:12:52;;;;;;;4.35;1.10;;;15.30;94.80;;;;;;5056014;28;20032;-74
2023/03/14 04:15:18;;;;;;;5.60;1.25;;;15.30;94.90;;;;;;5055703;28;20104;-74
2023/03/14 04:17:43;;;;;;;6.78;1.48;;;15.30;94.90;;;;;;5055865;28;20056;-74
2023/03/14 04:20:10;;;;;;;2.47;1.10;;;15.20;94.90;;;;;;5055811;28;20032;-74
2023/03/14 04:22:37;;;;;;;3.78;1.48;;;15.20;95.00;;;;;;5055428;28;20032;-74
2023/03/14 04:25:03;;;;;;;4.18;1.27;;;15.20;95.10;;;;;;5055443;28;20028;-74
2023/03/14 04:27:29;;;;;;;4.50;1.08;;;15.20;95.10;;;;;;5055702;28;20031;-74
2023/03/14 04:29:54;;;;;;;5.10;1.10;;;15.20;95.00;;;;;;5055735;28;20025;-74
2023/03/14 04:32:20;;;;;;;4.13;1.38;;;15.20;95.10;;;;;;5055370;28;20027;-74
2023/03/14 04:34:46;;;;;;;5.18;1.77;;;15.20;95.20;;;;;;5055286;28;20382;-74
2023/03/14 04:37:12;;;;;;;5.75;1.98;;;15.20;95.20;;;;;;5055520;28;20033;-74
2023/03/14 04:39:38;;;;;;;5.50;1.70;;;15.10;95.30;;;;;;5054943;28;20095;-74
2023/03/14 04:42:03;;;;;;;4.93;1.23;;;15.10;95.40;;;;;;5055441;28;20048;-74
2023/03/14 04:44:29;;;;;;;4.18;1.55;;;15.10;95.30;;;;;;5054953;28;20103;-74
2023/03/14 04:46:54;;;;;;;5.30;1.50;;;15.10;95.40;;;;;;5055353;28;20096;-74
2023/03/14 04:49:20;;;;;;;5.15;1.73;;;15.20;95.30;;;;;;5055169;28;20474;-74
2023/03/14 04:51:46;;;;;;;4.45;1.67;;;15.10;95.60;;;;;;5037481;28;20032;-74
2023/03/14 04:54:11;;;;;;;5.20;1.35;;;15.10;95.50;;;;;;5054469;28;20013;-74
2023/03/14 04:56:37;;;;;;;7.57;1.90;;;15.10;95.60;;;;;;5055001;28;20112;-72
2023/03/14 04:59:03;;;;;;;5.75;2.42;;;15.10;95.60;;;;;;5054416;28;20044;-72
2023/03/14 05:01:29;;;;;;;3.15;1.42;;;15.00;95.60;;;;;;5051483;28;20039;-72
2023/03/14 05:03:54;;;;;;;3.33;1.17;;;15.00;95.10;;;;;;5053008;28;20028;-72
2023/03/14 05:06:20;;;;;;;4.70;1.70;;;15.00;95.10;;;;;;5053371;28;20032;-72
2023/03/14 05:08:46;;;;;;;3.15;1.33;;;15.00;94.90;;;;;;5054254;28;20116;-72
2023/03/14 05:11:12;;;;;;;4.55;1.60;;;15.00;94.80;;;;;;5036959;28;20112;-72
2023/03/14 05:13:38;;;;;;;3.22;1.20;;;15.00;94.90;;;;;;5054644;28;20397;-72
2023/03/14 05:16:08;;;;;;;3.63;1.58;;;15.00;94.90;;;;;;5054688;28;20060;-72
2023/03/14 05:18:34;;;;;;;4.20;1.30;;;15.00;95.00;;;;;;5054406;28;20027;-72
2023/03/14 05:21:00;;;;;;;5.32;1.27;;;14.90;94.90;;;;;;5054623;28;20107;-72
2023/03/14 05:23:26;;;;;;;4.13;1.42;;;14.90;95.00;;;;;;5054221;28;20397;-72
2023/03/14 05:25:51;;;;;;;3.00;1.23;;;14.90;95.20;;;;;;5054564;28;20382;-72
2023/03/14 05:28:17;;;;;;;3.67;1.25;;;14.90;95.00;;;;;;5054569;28;20135;-72
2023/03/14 05:30:42;;;;;;;2.65;1.20;;;14.90;95.00;;;;;;5054413;28;20040;-72
2023/03/14 05:33:08;;;;;;;2.38;0.90;;;14.90;95.00;;;;;;5054342;28;20044;-72
2023/03/14 05:35:33;;;;;;;2.83;1.00;;;14.90;95.10;;;;;;5054320;28;20029;-72
2023/03/14 05:37:59;;;;;;;3.00;1.02;;;14.90;95.40;;;;;;5054048;28;20037;-72
2023/03/14 05:40:25;;;;;;;3.55;1.20;;;14.90;95.10;;;;;;5054085;28;20053;-72
2023/03/14 05:42:52;;;;;;;2.72;0.88;;;14.90;95.30;;;;;;5054278;28;20470;-72
2023/03/14 05:45:17;;;;;;;2.65;1.00;;;14.90;95.30;;;;;;5054207;28;20079;-72
2023/03/14 05:47:43;;;;;;;2.42;1.02;;;14.90;95.30;;;;;;5054177;28;20021;-72
2023/03/14 05:50:10;;;;;;;2.88;0.80;;;14.90;95.30;;;;;;5053587;28;20017;-72
2023/03/14 05:52:35;;;;;;;3.75;1.05;;;14.90;95.40;;;;;;5036306;28;20134;-72
2023/03/14 05:55:01;;;;;;;2.60;0.77;;;14.90;95.40;;;;;;5053784;28;20498;-72
2023/03/14 05:57:27;;;;;;;3.53;0.80;;;14.80;95.50;;;;;;5053975;28;20343;-72
2023/03/14 05:59:52;;;;;;;2.80;1.02;;;14.80;95.40;;;;;;5053773;28;20025;-72
2023/03/14 06:02:18;;;;;;;2.97;0.85;;;14.80;95.40;;;;;;5037323;28;20040;-72
2023/03/14 06:04:43;;;;;;;1.88;0.70;;;14.80;95.40;;;;;;5032681;28;20481;-72
2023/03/14 06:07:09;;;;;;;3.00;0.90;;;14.70;95.60;;;;;;5031938;28;20087;-72
2023/03/14 06:09:35;;;;;;;2.83;1.00;;;14.70;95.60;;;;;;5031427;28;20022;-72
2023/03/14 06:12:00;;;;;;;3.28;0.95;;;14.70;95.50;;;;;;5033037;28;20489;-72
2023/03/14 06:14:26;;;;;;;3.97;0.88;;;14.80;95.60;;;;;;5033704;28;20026;-72
2023/03/14 06:16:52;;;;;;;2.22;1.40;;;14.80;95.70;;;;;;5040019;28;20052;-72
2023/03/14 06:19:18;;;;;;;3.55;0.70;;;14.80;95.80;;;;;;5045414;28;20025;-72
2023/03/14 06:21:43;;;;;;;1.67;0.57;;;14.70;95.60;;;;;;5044705;28;20029;-72
2023/03/14 06:24:09;;;;;;;5.60;0.65;;;14.60;95.40;;;;;;5042132;28;20025;-72
2023/03/14 06:26:35;;;;;;;1.70;0.40;;;14.60;95.30;;;;;;5043011;28;20048;-72
2023/03/14 06:29:03;;;;;;;3.00;0.40;;;14.60;95.20;;;;;;5034041;28;20080;-72
2023/03/14 06:31:38;;;;;;;2.47;0.43;;;14.50;95.00;;;;;;5063424;27;20880;-74
2023/03/14 06:34:04;;;;;;;4.60;0.85;;;14.50;95.10;;;;;;5060543;28;20079;-73
2023/03/14 06:36:29;;;;;;;3.25;0.57;;;14.50;95.90;;;;;;5069472;28;20079;-74
2023/03/14 06:38:55;;;;;;;2.80;0.50;;;14.60;96.10;;;;;;5064510;28;20036;-73
2023/03/14 06:41:23;;;;;;;3.28;0.70;;;14.70;95.30;;;;;;5059977;28;20044;-74
2023/03/14 06:43:49;;;;;;;5.15;1.27;;;14.50;94.70;;;;;;5059350;28;20040;-72
2023/03/14 06:46:15;;;;;;;4.13;0.98;;;14.50;94.70;;;;;;5067905;28;20466;-73
2023/03/14 06:48:41;;;;;;;5.30;1.02;;;14.40;94.50;;;;;;5074474;28;20086;-73
2023/03/14 06:51:07;;;;;;;3.90;0.80;;;14.40;94.60;;;;;;5060961;28;20488;-73
2023/03/14 06:53:33;;;;;;;2.85;0.80;;;14.30;94.30;;;;;;5068075;28;20023;-73
2023/03/14 06:55:58;;;;;;;3.22;1.08;;;14.20;94.40;;;;;;5053260;28;20025;-73
2023/03/14 06:58:24;;;;;;;5.60;0.70;;;14.20;94.50;;;;;;5060858;28;20040;-73
2023/03/14 07:00:49;;;;;;;4.32;0.80;;;14.30;95.50;;;;;;5061086;28;20033;-73
2023/03/14 07:03:15;;;;;;;3.25;0.77;;;14.30;95.10;;;;;;5060214;28;20485;-73
2023/03/14 07:05:41;;;;;;;1.65;0.70;;;14.30;96.00;;;;;;5059454;28;20470;-75
2023/03/14 07:08:08;;;;;;;3.67;0.57;;;14.40;96.30;;;;;;5085470;28;20068;-73
2023/03/14 07:10:34;;;;;;;5.10;0.60;;;14.40;95.50;;;;;;5063246;28;20120;-74
2023/03/14 07:12:59;;;;;;;3.67;0.93;;;14.30;95.50;;;;;;5059397;28;20503;-73
2023/03/14 07:15:25;;;;;;;6.18;1.05;;;14.30;95.50;;;;;;5060253;28;20416;-73
2023/03/14 07:17:51;;;;;;;4.25;0.73;;;14.30;95.20;;;;;;5054383;28;20025;-73
2023/03/14 07:20:17;;;;;;;4.40;1.15;;;14.30;94.60;;;;;;5064144;28;20029;-74
2023/03/14 07:22:42;;;;;;;4.43;0.90;;;14.20;95.20;;;;;;5064491;28;20024;-73
2023/03/14 07:25:11;;;;;;;4.28;0.55;;;14.20;95.00;;;;;;5068470;28;20029;-73
2023/03/14 07:27:37;;;;;;;4.32;0.85;;;14.20;95.30;;;;;;5068688;28;20017;-73
2023/03/14 07:30:03;;;;;;;6.05;0.90;;;14.30;94.80;;;;;;5068672;28;20056;-74
2023/03/14 07:32:29;;;;;;;2.15;0.95;;;14.20;95.20;;;;;;5066904;28;20020;-74
2023/03/14 07:34:54;;;;;;;3.33;0.50;;;14.20;95.60;;;;;;5066738;28;20021;-73
2023/03/14 07:37:20;;;;;;;4.10;0.82;;;14.20;95.20;;;;;;5067679;28;20040;-73
2023/03/14 07:39:45;;;;;;;4.40;0.88;;;14.20;95.30;;;;;;5068371;28;20021;-73
2023/03/14 07:42:11;;;;;;;3.30;0.80;;;14.20;95.30;;;;;;5058878;28;20441;-73
2023/03/14 07:44:36;;;;;;;5.13;0.73;;;14.20;95.60;;;;;;5044525;28;20084;-75
2023/03/14 07:47:02;;;;;;;6.07;0.95;;;14.30;96.20;;;;;;5052175;28;20078;-75
2023/03/14 07:49:28;;;;;;;4.65;1.00;;;14.30;95.10;;;;;;5046786;28;20028;-76
2023/03/14 07:51:53;;;;;;;4.57;1.05;;;14.20;95.10;;;;;;5054468;28;20474;-72
2023/03/14 07:54:19;;;;;;;4.43;0.65;;;14.20;95.00;;;;;;5053952;28;20409;-71
2023/03/14 07:56:44;;;;;;;4.03;0.70;;;14.20;95.30;;;;;;5054611;28;20078;-74
2023/03/14 07:59:10;;;;;;;7.25;1.02;;;14.10;95.70;;;;;;5050665;28;20017;-74
2023/03/14 08:01:36;;;;;;;4.28;0.88;;;14.20;96.00;;;;;;5052682;28;20220;-73
2023/03/14 08:04:02;;;;;;;2.85;0.82;;;14.20;95.80;;;;;;5052641;28;20033;-71
2023/03/14 08:06:27;;;;;;;5.45;1.35;;;14.20;95.70;;;;;;5044009;28;20077;-73
2023/03/14 08:08:53;;;;;;;6.32;1.13;;;14.20;95.50;;;;;;5052807;23;20045;-78
2023/03/14 08:11:18;;;;;;;5.78;1.05;;;14.20;95.30;;;;;;5052655;28;20119;-72
2023/03/14 08:13:49;;;;;;;6.13;0.82;;;14.20;95.70;;;;;;5053680;28;20535;-72
2023/03/14 08:16:18;;;;;;;4.45;0.82;;;14.20;95.50;;;;;;5053481;28;20025;-72
2023/03/14 08:18:45;;;;;;;4.28;0.70;;;14.20;95.30;;;;;;5054174;28;20079;-73
2023/03/14 08:21:11;;;;;;;6.22;0.90;;;14.30;95.20;;;;;;5053999;28;20025;-72
2023/03/14 08:23:37;;;;;;;4.50;0.85;;;14.30;95.10;;;;;;5053434;28;20031;-73
2023/03/14 08:26:03;;;;;;;6.32;1.20;;;14.30;95.30;;;;;;5051413;28;20095;-72
2023/03/14 08:28:30;;;;;;;4.00;0.73;;;14.30;94.80;;;;;;5051916;28;20033;-72
2023/03/14 08:30:57;;;;;;;4.75;0.80;;;14.30;94.80;;;;;;5050236;28;20516;-73
2023/03/14 08:33:23;;;;;;;3.65;0.55;;;14.40;94.60;;;;;;5052331;28;20469;-73
2023/03/14 08:35:52;;;;;;;4.55;0.65;;;14.40;94.30;;;;;;5051779;28;20025;-74
2023/03/14 08:38:18;;;;;;;2.85;0.60;;;14.30;94.10;;;;;;5052318;28;20159;-73
2023/03/14 08:40:43;;;;;;;4.00;0.68;;;14.30;94.20;;;;;;5052070;28;20099;-72
2023/03/14 08:43:09;;;;;;;3.22;0.47;;;14.30;93.90;;;;;;5053104;28;20029;-73
2023/03/14 08:45:34;;;;;;;3.53;0.50;;;14.30;94.00;;;;;;5052732;28;20370;-73
2023/03/14 08:48:00;;;;;;;4.55;0.73;;;14.30;93.80;;;;;;5053620;28;20021;-73
2023/03/14 08:50:26;;;;;;;3.00;0.63;;;14.30;93.50;;;;;;5052403;28;20037;-74
2023/03/14 08:52:52;;;;;;;5.05;0.70;;;14.30;93.20;;;;;;5051184;28;20480;-74
2023/03/14 08:55:18;;;;;;;5.72;0.65;;;14.30;93.60;;;;;;5051398;28;20025;-73
2023/03/14 08:57:43;;;;;;;5.85;0.70;;;14.30;93.90;;;;;;5053578;28;20100;-73
2023/03/14 09:00:12;;;;;;;3.47;0.47;;;14.40;93.70;;;;;;5051255;28;20043;-73
2023/03/14 09:02:38;;;;;;;1.70;0.45;;;14.40;94.00;;;;;;5053101;28;20028;-73
2023/03/14 09:05:04;;;;;;;4.40;0.60;;;14.40;93.90;;;;;;5033856;28;20025;-75
2023/03/14 09:07:29;;;;;;;2.65;0.73;;;14.30;93.60;;;;;;5053217;28;20037;-74
2023/03/14 09:09:55;;;;;;;3.33;1.10;;;14.40;94.20;;;;;;5053716;28;20110;-73
2023/03/14 09:12:21;;;;;;;2.85;0.60;;;14.40;94.10;;;;;;5056671;28;20032;-74
2023/03/14 09:14:46;;;;;;;8.77;1.08;;;14.40;94.10;;;;;;5048906;28;20021;-74
2023/03/14 09:17:12;;;;;;;2.90;0.50;;;14.40;94.20;;;;;;5049088;28;20021;-73
2023/03/14 09:19:37;;;;;;;4.07;0.68;;;14.40;94.30;;;;;;5054878;28;20029;-75
2023/03/14 09:22:03;;;;;;;4.90;1.10;;;14.40;94.40;;;;;;5060118;28;20107;-74
2023/03/14 09:24:29;;;;;;;5.18;1.08;;;14.50;94.50;;;;;;5055426;28;20017;-75
2023/03/14 09:26:56;;;;;;;5.97;1.30;;;14.40;94.20;;;;;;5052643;28;20017;-75
2023/03/14 09:29:21;;;;;;;4.32;1.30;;;14.40;94.20;;;;;;5054019;28;20048;-74
2023/03/14 09:31:47;;;;;;;3.03;0.77;;;14.40;94.40;;;;;;5050989;28;20072;-73
2023/03/14 09:34:12;;;;;;;2.50;0.70;;;14.40;94.50;;;;;;5052082;28;20044;-72
2023/03/14 09:36:39;;;;;;;4.60;0.85;;;14.40;94.60;;;;;;5051221;28;20057;-72
2023/03/14 09:39:05;;;;;;;4.88;0.90;;;14.40;94.80;;;;;;5052364;28;20025;-72
2023/03/14 09:41:32;;;;;;;4.22;0.73;;;14.40;94.90;;;;;;5051221;28;20032;-72
2023/03/14 09:44:14;;;;;;;4.15;0.60;;;14.40;94.80;;;;;;5050365;28;20029;-73
2023/03/14 09:46:42;;;;;;;2.47;0.50;;;14.40;94.70;;;;;;5050965;28;20032;-72
2023/03/14 09:49:22;;;;;;;2.22;0.60;;;14.40;94.90;;;;;;5032613;28;20036;-73
2023/03/14 09:51:52;;;;;;;3.67;0.60;;;14.30;94.50;;;;;;5040238;28;20048;-72
2023/03/14 09:54:28;;;;;;;4.88;0.68;;;14.30;95.40;;;;;;5049906;28;20028;-71
2023/03/14 09:56:54;;;;;;;2.42;0.60;;;14.30;95.20;;;;;;5051873;28;20088;-72
2023/03/14 09:59:20;;;;;;;3.60;0.47;;;14.30;94.90;;;;;;5034270;28;20028;-76
2023/03/14 10:01:46;;;;;;;2.17;0.30;;;14.30;94.70;;;;;;5035704;28;20020;-71
2023/03/14 10:04:17;;;;;;;3.20;0.50;;;14.30;95.20;;;;;;5050839;28;20029;-71
2023/03/14 10:06:42;;;;;;;1.30;0.40;;;14.30;94.90;;;;;;5052000;28;20029;-72
2023/03/14 10:09:28;;;;;;;3.03;0.77;;;14.20;95.00;;;;;;5050947;28;20381;-72
2023/03/14 10:11:57;;;;;;;5.28;0.60;;;14.20;95.30;;;;;;5050134;28;20090;-72
2023/03/14 10:14:37;;;;;;;2.70;0.73;;;14.30;95.00;;;;;;5050309;28;20100;-72
2023/03/14 10:17:09;;;;;;;3.33;0.63;;;14.30;94.00;;;;;;5050150;28;20025;-72
2023/03/14 10:19:36;;;;;;;4.30;0.90;;;14.20;93.70;;;;;;5051037;28;20028;-71
2023/03/14 10:22:04;;;;;;;3.55;0.90;;;14.10;94.10;;;;;;5052101;28;20032;-71
2023/03/14 10:24:35;;;;;;;4.50;0.73;;;14.10;94.30;;;;;;5051436;28;20401;-71
2023/03/14 10:27:17;;;;;;;7.13;1.13;;;14.00;94.10;;;;;;5050622;28;20044;-71
2023/03/14 10:29:54;;;;;;;2.53;0.70;;;14.00;94.70;;;;;;5051407;28;20130;-72
2023/03/14 10:32:21;;;;;;;4.03;1.00;;;14.10;95.20;;;;;;5048625;28;20020;-71
2023/03/14 10:35:18;;;;;;;5.10;1.00;;;14.20;95.00;;;;;;5051130;28;20032;-71
2023/03/14 10:37:58;;;;;;;5.32;0.88;;;14.20;94.70;;;;;;5051591;28;20473;-72
2023/03/14 10:40:30;;;;;;;6.68;1.23;;;14.20;94.20;;;;;;5050751;28;20064;-71
2023/03/14 10:42:57;;;;;;;;;;;14.10;94.10;;;;;;5050876;28;20021;-71
2023/03/14 10:45:26;;;;;;;6.30;1.27;;;14.10;94.30;;;;;;5051253;28;19931;-71
2023/03/14 10:47:51;;;;;;;8.25;1.55;;;14.00;94.20;;;;;;5048134;28;20048;-71
2023/03/14 10:50:31;;;;;;;3.60;1.27;;;14.00;94.30;;;;;;5051081;28;20039;-71
2023/03/14 10:53:00;;;;;;;4.20;0.90;;;14.10;94.20;;;;;;5049216;28;20025;-72
2023/03/14 10:55:26;;;;;;;8.90;1.15;;;14.10;94.40;;;;;;5049743;28;20032;-72
2023/03/14 10:57:52;;;;;;;5.90;0.98;;;14.10;93.70;;;;;;5046622;28;20025;-73
2023/03/14 11:00:20;;;;;;;6.18;1.38;;;14.10;93.60;;;;;;5049522;28;20017;-75
2023/03/14 11:02:51;;;;;;;6.07;1.30;;;14.00;93.60;;;;;;5050917;28;20036;-73
2023/03/14 11:05:35;;;;;;;7.10;2.25;;;14.10;93.80;;;;;;5033484;28;20017;-73
2023/03/14 11:08:15;;;;;;;8.35;2.00;;;14.10;93.60;;;;;;5051557;28;20029;-72
2023/03/14 11:10:46;;;;;;;9.95;1.95;;;14.10;92.90;;;;;;5050503;28;20056;-75
2023/03/14 11:13:21;;;;;;;8.13;1.27;;;14.10;92.50;;;;;;5046987;28;20025;-73
2023/03/14 11:16:08;;;;;;;7.85;1.50;;;14.10;91.30;;;;;;5051125;28;20144;-72
2023/03/14 11:19:04;;;;;;;9.38;1.70;;;14.00;92.10;;;;;;5050980;28;20489;-74
2023/03/14 11:21:54;;;;;;;12.43;2.58;;;14.00;92.60;;;;;;5050352;28;20063;-74
2023/03/14 11:24:23;;;;;;;12.02;2.55;;;14.00;92.60;;;;;;5043564;28;20508;-72
2023/03/14 11:26:53;;;;;;;10.32;2.13;;;14.00;92.40;;;;;;5052587;28;20036;-72
2023/03/14 11:29:32;;;;;;;12.50;2.30;;;14.00;92.30;;;;;;5054286;28;20031;-72
2023/03/14 11:32:02;;;;;;;9.45;1.88;;;14.00;91.50;;;;;;5055010;28;20056;-72
2023/03/14 11:34:44;;;;;;;14.40;2.95;;;13.90;91.50;;;;;;5050395;28;20033;-72
2023/03/14 11:37:17;;;;;;;11.45;2.63;;;13.80;92.80;;;;;;5048595;28;20649;-75
2023/03/14 11:39:52;;;;;;;10.25;2.40;;;13.80;92.50;;;;;;5051889;28;20493;-74
2023/03/14 11:42:19;;;;;;;11.98;2.75;;;13.80;93.30;;;;;;5054522;28;20382;-74
2023/03/14 11:44:48;;;;;;;16.45;3.10;;;13.80;93.30;;;;;;5054463;28;20025;-74
2023/03/14 11:47:22;;;;;;;13.43;2.97;;;13.80;93.00;;;;;;5054769;28;20045;-74
2023/03/14 11:49:58;;;;;;;16.00;2.97;;;13.80;93.60;;;;;;5051374;28;20083;-75
2023/03/14 11:52:24;;;;;;;12.88;2.58;;;13.80;93.00;;;;;;5054241;28;20033;-73
2023/03/14 11:54:56;;;;;;;11.60;2.83;;;13.90;93.40;;;;;;5052959;28;20017;-72
2023/03/14 11:57:22;;;;;;;11.07;2.38;;;13.80;93.50;;;;;;5053451;28;20039;-75
2023/03/14 12:00:12;;;;;;;17.05;3.85;;;13.90;93.60;;;;;;5052144;28;20025;-73
2023/03/14 12:03:05;;;;;;;15.20;2.95;;;13.90;91.70;;;;;;5050887;28;20024;-75
2023/03/14 12:05:38;;;;;;;13.13;2.35;;;13.90;91.70;;;;;;5053865;28;20700;-73
2023/03/14 12:08:07;;;;;;;10.07;2.70;;;13.90;93.10;;;;;;5054142;28;20013;-77
2023/03/14 12:10:44;;;;;;;12.60;2.85;;;13.80;94.00;;;;;;5054039;28;20078;-77
2023/03/14 12:13:12;;;;;;;12.00;2.47;;;13.90;95.50;;;;;;5054001;28;20040;-73
2023/03/14 12:15:49;;;;;;;10.60;3.17;;;13.90;94.60;;;;;;5053259;28;20028;-71
2023/03/14 12:18:30;;;;;;;10.85;2.65;;;13.80;93.00;;;;;;5052711;28;20021;-72
2023/03/14 12:21:05;;;;;;;11.13;3.15;;;13.80;92.80;;;;;;5054228;28;20021;-71
2023/03/14 12:23:42;;;;;;;9.00;2.00;;;13.70;93.20;;;;;;5052217;28;20117;-76
2023/03/14 12:26:17;;;;;;;11.82;2.80;;;13.80;93.60;;;;;;5052572;28;20024;-76
2023/03/14 12:28:53;;;;;;;8.82;2.22;;;13.70;92.90;;;;;;5053788;28;20033;-73
2023/03/14 12:31:31;;;;;;;11.90;3.88;;;13.70;92.70;;;;;;5052856;28;20040;-76
2023/03/14 12:34:09;;;;;;;17.35;2.90;;;13.70;92.90;;;;;;5052529;28;20070;-72
2023/03/14 12:36:49;;;;;;;13.77;3.63;;;13.70;93.70;;;;;;5053110;28;20017;-77
2023/03/14 12:39:47;;;;;;;15.07;3.58;;;13.70;93.70;;;;;;5053726;28;20029;-74
2023/03/14 12:42:53;;;;;;;19.33;3.60;;;13.70;93.30;;;;;;5052109;28;20133;-73
2023/03/14 12:45:31;;;;;;;19.75;3.90;;;13.80;92.50;;;;;;5051517;28;20397;-72
2023/03/14 12:48:22;;;;;;;22.05;4.30;;;13.70;93.50;;;;;;5052532;28;20113;-72
2023/03/14 12:51:03;;;;;;;17.48;3.63;;;13.70;94.40;;;;;;5052278;28;20029;-72
2023/03/14 12:53:37;;;;;;;13.98;3.33;;;13.80;95.20;;;;;;5040012;28;20116;-76